Deneb — CUQC — position and weather

sailwx.info

Track history (hours):
 
Tides and Currents Weather Stations Pressure Air Temp Water Temp Dewpoint Dewpoint Depression Visibility Wind Speed Wind Dir Waves Ship Positions

Deneb

Last reported at 2017-Nov-17 15:42 UTC. Time now 2017-Nov-19 08:43 UTC.
Position N 39°18' W 009°23'.

Length 24 m.

Type: Ship. MMSI: 263486000.

Date/timePositionNaut miles runAvg speedWind from/ knotsBaromVisibWave heightAir tempDewpointWater temp
2017-Nov-17 15:42N 39°18' W 009°23'2 9.0
2017-Nov-17 15:30N 39°17' W 009°24'5 0.1
2017-Nov-16 02:25N 39°22' W 009°25'2 0.6
2017-Nov-15 23:09N 39°21' W 009°22'0 0.0
2017-Nov-15 22:57N 39°21' W 009°22'0 0.0
2017-Nov-15 22:25N 39°21' W 009°22'0 0.0
2017-Nov-15 21:58N 39°21' W 009°22'0 0.0
2017-Nov-15 21:19N 39°21' W 009°22'0 0.0
2017-Nov-15 20:58N 39°21' W 009°22'0 0.0
2017-Nov-15 20:01N 39°21' W 009°22'0 0.0
2017-Nov-15 19:58N 39°21' W 009°22'1 2.6
2017-Nov-15 19:30N 39°21' W 009°24'5 0.2
2017-Nov-14 19:05N 39°17' W 009°27'1 8.4
2017-Nov-14 18:58N 39°16' W 009°28'4 8.4
2017-Nov-14 18:30N 39°13' W 009°31'4 8.2
2017-Nov-14 18:01N 39°10' W 009°34'4 8.1
2017-Nov-14 17:30N 39°07' W 009°38'4 8.4
2017-Nov-14 17:01N 39°04' W 009°41'1 0.2
2017-Nov-14 12:58N 39°03' W 009°40'1 3.2
2017-Nov-14 12:30N 39°02' W 009°42'2 4.5
2017-Nov-14 12:00N 39°00' W 009°41'2 3.6
2017-Nov-14 11:30N 38°58' W 009°41'2 3.4
2017-Nov-14 11:00N 38°57' W 009°41'5 1.0
2017-Nov-14 05:39N 38°57' W 009°34'1 6.0
2017-Nov-14 05:30N 38°58' W 009°34'4 8.9
2017-Nov-14 05:00N 39°02' W 009°32'5 9.1
2017-Nov-14 04:30N 39°06' W 009°30'4 8.9
2017-Nov-14 04:00N 39°10' W 009°28'  
2017-Nov-11 03:28N 39°22' W 009°25'0 0.0
2017-Nov-10 17:47N 39°22' W 009°25'2 0.0
2017-Nov-08 17:37N 39°21' W 009°22'0 0.0
2017-Nov-08 17:27N 39°21' W 009°22'0 0.0
2017-Nov-08 17:00N 39°21' W 009°22'0 0.0
2017-Nov-08 16:20N 39°21' W 009°22'0 0.0
2017-Nov-08 15:57N 39°21' W 009°22'  
Track history (hours):
 
Tides and Currents Weather Stations Pressure Air Temp Water Temp Dewpoint Dewpoint Depression Visibility Wind Speed Wind Dir Waves Ship Positions

Deneb

Last reported at 2017-Nov-17 15:42 UTC. Time now 2017-Nov-19 08:43 UTC.
Position N 39°18' W 009°23'.

Length 24 m.

Type: Ship. MMSI: 263486000.

Date/timePositionNaut miles runAvg speedWind from/ knotsBaromVisibWave heightAir tempDewpointWater temp
2017-Nov-17 15:42N 39°18' W 009°23'2 9.0
2017-Nov-17 15:30N 39°17' W 009°24'5 0.1
2017-Nov-16 02:25N 39°22' W 009°25'2 0.6
2017-Nov-15 23:09N 39°21' W 009°22'0 0.0
2017-Nov-15 22:57N 39°21' W 009°22'0 0.0
2017-Nov-15 22:25N 39°21' W 009°22'0 0.0
2017-Nov-15 21:58N 39°21' W 009°22'0 0.0
2017-Nov-15 21:19N 39°21' W 009°22'0 0.0
2017-Nov-15 20:58N 39°21' W 009°22'0 0.0
2017-Nov-15 20:01N 39°21' W 009°22'0 0.0
2017-Nov-15 19:58N 39°21' W 009°22'1 2.6
2017-Nov-15 19:30N 39°21' W 009°24'5 0.2
2017-Nov-14 19:05N 39°17' W 009°27'1 8.4
2017-Nov-14 18:58N 39°16' W 009°28'4 8.4
2017-Nov-14 18:30N 39°13' W 009°31'4 8.2
2017-Nov-14 18:01N 39°10' W 009°34'4 8.1
2017-Nov-14 17:30N 39°07' W 009°38'4 8.4
2017-Nov-14 17:01N 39°04' W 009°41'1 0.2
2017-Nov-14 12:58N 39°03' W 009°40'1 3.2
2017-Nov-14 12:30N 39°02' W 009°42'2 4.5
2017-Nov-14 12:00N 39°00' W 009°41'2 3.6
2017-Nov-14 11:30N 38°58' W 009°41'2 3.4
2017-Nov-14 11:00N 38°57' W 009°41'5 1.0
2017-Nov-14 05:39N 38°57' W 009°34'1 6.0
2017-Nov-14 05:30N 38°58' W 009°34'4 8.9
2017-Nov-14 05:00N 39°02' W 009°32'5 9.1
2017-Nov-14 04:30N 39°06' W 009°30'4 8.9
2017-Nov-14 04:00N 39°10' W 009°28'  
2017-Nov-11 03:28N 39°22' W 009°25'0 0.0
2017-Nov-10 17:47N 39°22' W 009°25'2 0.0
2017-Nov-08 17:37N 39°21' W 009°22'0 0.0
2017-Nov-08 17:27N 39°21' W 009°22'0 0.0
2017-Nov-08 17:00N 39°21' W 009°22'0 0.0
2017-Nov-08 16:20N 39°21' W 009°22'0 0.0
2017-Nov-08 15:57N 39°21' W 009°22'  

Dump ship's entire track history